Atwood, Indiana
Current Conditions -  °F | °C
As of 8:15 AM on Monday 22 Dec 2014 (Local Time) from KASW Reporting Station
Haze Haze  
Wind Chill: 21°   Ceiling: 10000
Heat Index: 28°   Visibility: 5mi
Dew Point: 27°   Wind: 7mph
Humidity: 93%   Direction: 110°ESE
Pressure: 29.99"   Gusts: NA
Location:  41.26°N, 85.98°W
Report Text: KASW 221315Z AUTO 11006KT 5SM BR OVC100 M02/M03 A2999 RMK AO2
Loading
Personal Weather Stations






























Interactive Weather Map New forecast layout! Learn more

10-Day Weather Forecast

Advertisements
Track Severe Weather on mobile